Time;durP1;ratioP1;P1;durP2;ratioP2;P2;SDS_P1;SDS_P2;PMS_P1;PMS_P2;Temp;Humidity;BMP_temperature;BMP_pressure;BME280_temperature;BME280_humidity;BME280_pressure;Samples;Min_cycle;Max_cycle;Signal;HPM_P1;HPM_P2
2021/12/22 00:00:18;;;;;;;60.00;24.40;;;;;;;-5.58;71.82;99739.52;103197;1317;98001;-69
2021/12/22 00:03:08;;;;;;;58.70;25.90;;;;;;;-5.57;71.68;99739.86;103034;1322;95262;-71
2021/12/22 00:05:44;;;;;;;62.40;26.40;;;;;;;-5.55;71.73;99743.50;102995;1317;111503;-70
2021/12/22 00:08:14;;;;;;;60.80;27.00;;;;;;;-5.52;71.91;99744.37;103060;1319;97874;-70
2021/12/22 00:10:45;;;;;;;65.50;29.60;;;;;;;-5.48;71.74;99744.38;103016;1320;106665;-69
2021/12/22 00:13:13;;;;;;;63.60;28.50;;;;;;;-5.46;71.88;99742.48;102961;1317;97908;-71
2021/12/22 00:15:41;;;;;;;64.90;27.40;;;;;;;-5.42;71.80;99745.78;102956;1318;98566;-72
2021/12/22 00:18:09;;;;;;;65.10;28.50;;;;;;;-5.40;71.85;99747.00;102765;1315;111394;-71
2021/12/22 00:20:37;;;;;;;72.30;32.40;;;;;;;-5.36;71.96;99750.47;102941;1316;98296;-72
2021/12/22 00:23:08;;;;;;;69.90;29.10;;;;;;;-5.31;72.08;99752.40;103017;1315;108674;-71
2021/12/22 00:25:36;;;;;;;59.80;27.60;;;;;;;-5.27;71.99;99750.33;103063;1315;97936;-71
2021/12/22 00:28:04;;;;;;;60.90;26.70;;;;;;;-5.24;72.08;99752.75;103145;1316;97992;-71
2021/12/22 00:30:36;;;;;;;57.90;27.50;;;;;;;-5.19;72.02;99752.42;103044;1316;112457;-70
2021/12/22 00:33:06;;;;;;;61.10;26.90;;;;;;;-5.16;72.00;99753.48;102964;1321;98004;-71
2021/12/22 00:35:43;;;;;;;57.70;25.50;;;;;;;-5.13;72.00;99752.10;102955;1317;108107;-70
2021/12/22 00:38:16;;;;;;;61.50;28.80;;;;;;;-5.11;72.02;99755.05;102979;1317;98008;-69
2021/12/22 00:40:47;;;;;;;62.80;26.20;;;;;;;-5.08;72.08;99757.11;102952;1323;97904;-70
2021/12/22 00:43:17;;;;;;;58.00;26.40;;;;;;;-5.05;72.12;99762.14;103005;1323;112524;-70
2021/12/22 00:45:47;;;;;;;54.20;23.90;;;;;;;-5.01;72.14;99769.94;103203;1318;97927;-70
2021/12/22 00:48:16;;;;;;;66.90;29.80;;;;;;;-4.98;72.14;99772.36;102908;1323;108920;-71
2021/12/22 00:50:44;;;;;;;62.20;27.10;;;;;;;-4.93;72.02;99769.09;103070;1315;97872;-72
2021/12/22 00:53:17;;;;;;;59.00;27.50;;;;;;;-4.90;72.17;99770.99;103124;1317;97902;-71
2021/12/22 00:55:46;;;;;;;63.00;27.70;;;;;;;-4.87;72.15;99776.17;103114;1320;111456;-72
2021/12/22 00:58:17;;;;;;;64.80;27.60;;;;;;;-4.84;72.07;99775.50;103093;1319;97973;-70
2021/12/22 01:00:47;;;;;;;62.20;28.90;;;;;;;-4.81;72.18;99776.36;102978;1322;107805;-71
2021/12/22 01:03:18;;;;;;;63.50;30.50;;;;;;;-4.77;72.10;99780.88;103079;1320;97905;-71
2021/12/22 01:05:47;;;;;;;61.00;25.10;;;;;;;-4.73;72.33;99784.70;102976;1321;97917;-72
2021/12/22 01:08:15;;;;;;;55.40;26.50;;;;;;;-4.69;72.26;99787.46;102990;1319;111509;-71
2021/12/22 01:10:46;;;;;;;64.20;28.00;;;;;;;-4.66;72.37;99787.80;103065;1319;96517;-71
2021/12/22 01:13:17;;;;;;;63.20;27.30;;;;;;;-4.62;72.26;99788.84;102991;1320;107070;-71
2021/12/22 01:15:49;;;;;;;59.90;28.70;;;;;;;-4.59;72.26;99787.45;103038;1323;97859;-71
2021/12/22 01:18:28;;;;;;;60.60;28.70;;;;;;;-4.56;72.18;99787.64;103007;1316;95999;-71
2021/12/22 01:23:35;;;;;;;66.30;29.50;;;;;;;-4.51;72.23;99791.80;103009;1324;97935;-73
2021/12/22 01:26:07;;;;;;;70.60;28.60;;;;;;;-4.48;72.27;99792.84;102990;1317;107796;-72
2021/12/22 01:28:41;;;;;;;62.20;27.40;;;;;;;-4.45;72.40;99788.86;103132;1316;97928;-72
2021/12/22 01:31:15;;;;;;;63.30;29.10;;;;;;;-4.43;72.39;99788.67;103148;1315;97891;-73
2021/12/22 01:33:44;;;;;;;62.40;28.80;;;;;;;-4.41;72.29;99782.79;103118;1317;111398;-72
2021/12/22 01:36:13;;;;;;;60.40;28.90;;;;;;;-4.39;72.21;99786.25;102978;1323;98837;-72
2021/12/22 01:38:41;;;;;;;59.90;26.00;;;;;;;-4.37;72.26;99790.07;102981;1316;107910;-72
2021/12/22 01:41:12;;;;;;;59.80;27.90;;;;;;;-4.35;72.32;99785.04;103152;1317;97919;-71
2021/12/22 01:43:43;;;;;;;64.10;28.20;;;;;;;-4.33;72.26;99782.45;103048;1317;98104;-72
2021/12/22 01:49:10;;;;;;;59.20;29.10;;;;;;;-4.28;72.35;99773.26;103076;1316;97025;-72
2021/12/22 01:51:46;;;;;;;64.50;28.40;;;;;;;-4.25;72.39;99767.02;102976;1316;107681;-71
2021/12/22 01:54:19;;;;;;;;;;;;;;;-4.23;72.33;99770.48;103020;1316;98637;-71
2021/12/22 01:56:49;;;;;;;64.00;29.40;;;;;;;-4.23;72.41;99770.31;103092;1317;97945;-72
2021/12/22 01:59:20;;;;;;;59.90;26.90;;;;;;;-4.22;72.48;99770.83;103009;1321;110114;-71
2021/12/22 02:01:48;;;;;;;61.30;27.70;;;;;;;-4.19;72.47;99769.27;102959;1317;97526;-71
2021/12/22 02:04:16;;;;;;;62.90;28.30;;;;;;;-4.17;72.33;99773.60;103043;1317;107715;-72
2021/12/22 02:06:48;;;;;;;63.30;28.50;;;;;;;-4.16;72.43;99780.88;103022;1316;96338;-70
2021/12/22 02:12:00;;;;;;;57.20;25.40;;;;;;;-4.15;72.53;99784.70;102960;1319;112171;-71
2021/12/22 02:14:28;;;;;;;61.60;27.90;;;;;;;-4.12;72.46;99779.84;103018;1316;96424;-70
2021/12/22 02:16:58;;;;;;;62.70;27.50;;;;;;;-4.10;72.53;99778.09;103029;1317;107853;-71
2021/12/22 02:19:26;;;;;;;63.50;28.00;;;;;;;-4.09;72.38;99765.80;102950;1322;95322;-71
2021/12/22 02:21:57;;;;;;;65.40;28.60;;;;;;;-4.08;72.51;99772.56;103131;1317;97988;-72
2021/12/22 02:24:25;;;;;;;65.10;28.20;;;;;;;-4.07;72.62;99773.06;103001;1317;111557;-71
2021/12/22 02:27:05;;;;;;;63.20;28.80;;;;;;;-4.05;72.63;99765.42;102976;1316;96618;-71
2021/12/22 02:29:34;;;;;;;66.90;29.90;;;;;;;-4.03;72.59;99767.67;102940;1316;107989;-73
2021/12/22 02:32:12;;;;;;;63.00;29.30;;;;;;;-4.02;72.47;99772.00;102867;1320;97979;-71
2021/12/22 02:34:47;;;;;;;62.00;27.90;;;;;;;-4.00;72.68;99774.95;103022;1320;97944;-71
2021/12/22 02:37:18;;;;;;;58.10;28.60;;;;;;;-4.01;72.53;99776.52;102939;1324;111655;-74
2021/12/22 02:40:00;;;;;;;57.60;26.90;;;;;;;-4.02;72.37;99774.95;103007;1317;96275;-72
2021/12/22 02:42:32;;;;;;;60.20;26.40;;;;;;;-4.03;72.61;99779.98;102884;1320;107811;-72
2021/12/22 02:45:13;;;;;;;62.70;27.50;;;;;;;-4.04;72.46;99781.89;103023;1319;98027;-72
2021/12/22 02:47:42;;;;;;;57.50;25.10;;;;;;;-4.04;72.49;99776.52;102996;1316;96354;-72
2021/12/22 02:50:14;;;;;;;59.70;26.90;;;;;;;-4.03;72.65;99771.15;102916;1317;136103;-71
2021/12/22 03:04:01;;;;;;;55.60;25.10;;;;;;;-3.97;72.68;99771.83;102946;1319;111476;-70
2021/12/22 03:06:36;;;;;;;64.10;27.80;;;;;;;-3.95;72.60;99774.42;102990;1322;97997;-71
2021/12/22 03:09:27;;;;;;;59.40;25.70;;;;;;;-3.95;72.65;99773.39;102960;1317;107865;-71
2021/12/22 03:12:00;;;;;;;57.60;26.50;;;;;;;-3.95;72.63;99771.83;103037;1317;95907;-72
2021/12/22 03:14:28;;;;;;;63.20;29.30;;;;;;;-3.94;72.64;99779.98;103009;1317;97902;-72
2021/12/22 03:16:59;;;;;;;65.60;29.90;;;;;;;-3.97;72.41;99780.66;103200;1317;111553;-72
2021/12/22 03:19:30;;;;;;;63.50;29.00;;;;;;;-3.96;72.61;99778.08;103017;1317;96642;-71
2021/12/22 03:22:04;;;;;;;69.00;30.30;;;;;;;-3.97;72.50;99786.73;102982;1321;107864;-70
2021/12/22 03:24:36;;;;;;;60.00;28.10;;;;;;;-3.99;72.66;99781.54;103010;1317;97875;-71
2021/12/22 03:27:07;;;;;;;59.60;27.70;;;;;;;-3.99;72.52;99790.03;103026;1316;98021;-71
2021/12/22 03:29:38;;;;;;;56.60;27.80;;;;;;;-3.99;72.48;99789.67;102947;1317;111278;-70
2021/12/22 03:32:08;;;;;;;53.70;26.10;;;;;;;-3.98;72.56;99794.52;103001;1318;97051;-71
2021/12/22 03:34:40;;;;;;;81.60;30.60;;;;;;;-3.99;72.58;99795.58;103087;1316;109097;-71
2021/12/22 03:37:09;;;;;;;61.70;30.10;;;;;;;-4.00;72.43;99796.79;102962;1320;97833;-71
2021/12/22 03:39:38;;;;;;;60.90;28.30;;;;;;;-4.00;72.71;99800.94;103182;1316;97983;-72
2021/12/22 03:42:09;;;;;;;63.70;29.00;;;;;;;-4.04;72.45;99798.00;103057;1317;109925;-71
2021/12/22 03:44:38;;;;;;;63.10;29.70;;;;;;;-4.06;72.50;99801.63;103199;1320;96493;-71
2021/12/22 03:47:08;;;;;;;64.00;28.70;;;;;;;-4.07;72.52;99800.78;103233;1316;106968;-71
2021/12/22 03:49:36;;;;;;;61.10;28.00;;;;;;;-4.06;72.55;99799.73;103137;1316;97932;-72
2021/12/22 03:52:07;;;;;;;61.40;28.90;;;;;;;-4.04;72.55;99801.81;103001;1317;97973;-71
2021/12/22 03:54:35;;;;;;;63.30;30.30;;;;;;;-4.06;72.63;99800.77;102816;1317;111373;-70
2021/12/22 03:57:03;;;;;;;64.60;30.40;;;;;;;-4.08;72.69;99799.74;102942;1320;97940;-70
2021/12/22 03:59:31;;;;;;;57.80;26.80;;;;;;;-4.08;72.65;99797.66;102938;1316;107872;-70
2021/12/22 04:01:59;;;;;;;61.90;27.90;;;;;;;-4.08;72.60;99796.63;103008;1316;97995;-70
2021/12/22 04:04:31;;;;;;;64.60;29.10;;;;;;;-4.08;72.56;99800.63;103063;1316;97872;-70
2021/12/22 04:06:59;;;;;;;57.50;27.60;;;;;;;-4.09;72.65;99804.25;103036;1317;110134;-71
2021/12/22 04:09:27;;;;;;;59.10;27.60;;;;;;;-4.11;72.54;99804.09;103145;1316;96526;-71
2021/12/22 04:11:58;;;;;;;60.10;28.00;;;;;;;-4.11;72.57;99804.60;102976;1316;107810;-71
2021/12/22 04:14:26;;;;;;;59.40;27.30;;;;;;;-4.12;72.50;99808.06;103013;1316;97886;-71
2021/12/22 04:16:53;;;;;;;63.50;28.30;;;;;;;-4.12;72.50;99805.13;103048;1322;97895;-73
2021/12/22 04:19:21;;;;;;;59.80;27.20;;;;;;;-4.13;72.61;99806.17;103138;1317;111511;-70
2021/12/22 04:21:50;;;;;;;58.50;26.60;;;;;;;-4.12;72.77;99807.73;103009;1317;95913;-71
2021/12/22 04:24:23;;;;;;;65.90;27.30;;;;;;;-4.12;72.62;99817.41;102964;1317;107827;-72
2021/12/22 04:26:51;;;;;;;52.80;24.50;;;;;;;-4.13;72.54;99829.55;103005;1320;97885;-71
2021/12/22 04:29:19;;;;;;;56.80;27.50;;;;;;;-4.13;72.68;99833.52;102971;1323;97866;-71
2021/12/22 04:31:47;;;;;;;64.90;30.00;;;;;;;-4.13;72.44;99842.02;102978;1321;111521;-71
2021/12/22 04:34:18;;;;;;;71.80;34.30;;;;;;;-4.14;72.62;99846.35;103019;1315;97928;-70
2021/12/22 04:36:45;;;;;;;66.10;30.30;;;;;;;-4.18;72.50;99845.30;102954;1321;107930;-70
2021/12/22 04:39:13;;;;;;;74.20;35.50;;;;;;;-4.23;72.56;99847.20;103035;1321;98450;-70
2021/12/22 04:41:41;;;;;;;74.50;34.20;;;;;;;-4.26;72.44;99848.25;103032;1322;98084;-70
2021/12/22 04:44:09;;;;;;;74.40;34.30;;;;;;;-4.31;72.50;99848.60;103096;1320;111479;-71
2021/12/22 04:46:37;;;;;;;73.10;34.20;;;;;;;-4.36;72.45;99848.94;103037;1316;95997;-70
2021/12/22 04:49:05;;;;;;;74.50;33.80;;;;;;;-4.40;72.49;99853.96;102875;1321;107797;-69
2021/12/22 04:51:35;;;;;;;78.10;35.20;;;;;;;-4.42;72.50;99857.92;102989;1317;97897;-71
2021/12/22 04:54:19;;;;;;;73.10;36.00;;;;;;;-4.42;72.48;99858.28;103065;1319;97903;-70
2021/12/22 04:56:48;;;;;;;71.90;35.40;;;;;;;-4.46;72.64;99861.40;103017;1317;111498;-70
2021/12/22 04:59:16;;;;;;;80.70;36.80;;;;;;;-4.51;72.49;99865.72;102932;1317;98588;-70
2021/12/22 05:01:44;;;;;;;81.30;39.00;;;;;;;-4.57;72.42;99860.35;103013;1317;105993;-71
2021/12/22 05:04:15;;;;;;;74.90;37.00;;;;;;;-4.64;72.37;99859.29;102995;1317;98428;-70
2021/12/22 05:06:43;;;;;;;75.60;36.40;;;;;;;-4.67;72.55;99859.29;102990;1318;98034;-71
2021/12/22 05:09:11;;;;;;;72.70;34.80;;;;;;;-4.68;72.50;99863.78;103024;1317;112154;-71
2021/12/22 05:11:40;;;;;;;69.20;33.50;;;;;;;-4.71;72.50;99862.73;103109;1317;97928;-72
2021/12/22 05:14:10;;;;;;;77.00;35.10;;;;;;;-4.76;72.55;99859.09;103038;1320;106105;-70
2021/12/22 05:16:45;;;;;;;73.80;36.10;;;;;;;-4.75;72.66;99859.45;103040;1317;97880;-71
2021/12/22 05:19:15;;;;;;;80.00;37.60;;;;;;;-4.74;72.66;99857.54;103044;1316;97921;-71
2021/12/22 05:21:46;;;;;;;77.10;36.60;;;;;;;-4.75;72.68;99860.48;103017;1319;111542;-72
2021/12/22 05:24:14;;;;;;;79.10;35.00;;;;;;;-4.74;72.72;99864.13;103087;1317;97888;-71
2021/12/22 05:26:42;;;;;;;75.10;35.50;;;;;;;-4.73;72.75;99869.14;103029;1316;107935;-71
2021/12/22 05:29:12;;;;;;;73.70;35.50;;;;;;;-4.72;72.77;99870.35;103143;1317;97876;-73
2021/12/22 05:31:40;;;;;;;70.90;34.50;;;;;;;-4.72;72.73;99873.99;103014;1316;95257;-72
2021/12/22 05:34:09;;;;;;;73.60;35.80;;;;;;;-4.71;72.67;99877.63;103122;1315;111462;-74
2021/12/22 05:36:37;;;;;;;74.90;33.40;;;;;;;-4.70;72.62;99882.14;103201;1320;97879;-73
2021/12/22 05:39:05;;;;;;;81.80;38.20;;;;;;;-4.70;72.60;99880.73;102988;1323;107790;-71
2021/12/22 05:41:33;;;;;;;71.40;35.30;;;;;;;-4.69;72.65;99881.59;103006;1317;96442;-72
2021/12/22 05:44:01;;;;;;;77.10;35.70;;;;;;;-4.69;72.61;99880.91;103005;1322;97942;-73
2021/12/22 05:46:32;;;;;;;70.30;35.90;;;;;;;-4.70;72.61;99884.21;103012;1317;111474;-72
2021/12/22 05:49:00;;;;;;;66.00;31.40;;;;;;;-4.70;72.57;99883.16;103055;1317;96630;-72
2021/12/22 05:51:30;;;;;;;66.10;32.10;;;;;;;-4.69;72.70;99884.02;103150;1316;107827;-73
2021/12/22 05:54:03;;;;;;;71.50;32.90;;;;;;;-4.67;72.74;99884.89;103136;1319;97901;-70
2021/12/22 05:56:32;;;;;;;68.20;30.90;;;;;;;-4.65;72.85;99888.02;103019;1317;97795;-72
2021/12/22 05:59:00;;;;;;;65.40;30.40;;;;;;;-4.62;72.85;99892.18;102924;1317;110393;-72
2021/12/22 06:01:30;;;;;;;64.10;30.30;;;;;;;-4.59;72.71;99894.08;102929;1320;95958;-73
2021/12/22 06:04:03;;;;;;;64.50;29.70;;;;;;;-4.56;72.84;99891.68;103065;1322;107844;-72
2021/12/22 06:06:34;;;;;;;62.30;28.40;;;;;;;-4.53;72.78;99897.39;103078;1316;98326;-70
2021/12/22 06:09:07;;;;;;;60.60;28.60;;;;;;;-4.51;72.82;99896.71;103024;1317;95368;-70
2021/12/22 06:11:35;;;;;;;59.00;29.80;;;;;;;-4.47;72.90;99897.92;103013;1317;111553;-71
2021/12/22 06:14:03;;;;;;;66.70;28.90;;;;;;;-4.44;72.83;99901.56;103214;1316;98460;-71
2021/12/22 06:16:34;;;;;;;58.20;27.30;;;;;;;-4.41;72.83;99905.73;103215;1316;107705;-71
2021/12/22 06:19:07;;;;;;;60.60;26.40;;;;;;;-4.39;72.95;99905.39;103212;1317;98011;-72
2021/12/22 06:21:38;;;;;;;64.30;28.90;;;;;;;-4.36;72.82;99909.73;103008;1317;97919;-72
2021/12/22 06:24:09;;;;;;;55.00;26.40;;;;;;;-4.36;73.05;99910.23;103208;1316;111460;-72
2021/12/22 06:26:36;;;;;;;64.30;29.70;;;;;;;-4.33;72.96;99913.88;103173;1316;97872;-71
2021/12/22 06:29:04;;;;;;;60.30;28.80;;;;;;;-4.31;73.08;99913.89;103198;1316;108651;-73
2021/12/22 06:31:35;;;;;;;69.70;30.00;;;;;;;-4.27;73.10;99915.45;103020;1319;97926;-72
2021/12/22 06:34:03;;;;;;;56.40;27.90;;;;;;;-4.26;72.80;99920.30;103222;1316;97880;-78
2021/12/22 06:36:33;;;;;;;61.60;30.30;;;;;;;-4.24;73.05;99921.17;103058;1317;111459;-72
2021/12/22 06:39:00;;;;;;;62.40;30.40;;;;;;;-4.22;72.86;99918.39;103002;1320;97916;-71
2021/12/22 06:41:32;;;;;;;64.50;31.30;;;;;;;-4.20;72.84;99917.20;103243;1316;109839;-71
2021/12/22 06:44:00;;;;;;;68.00;31.20;;;;;;;-4.18;72.94;99922.20;103246;1317;97994;-73
2021/12/22 06:46:33;;;;;;;60.90;29.20;;;;;;;-4.16;73.10;99921.53;103229;1322;97969;-72
2021/12/22 06:49:02;;;;;;;65.80;30.30;;;;;;;-4.17;73.04;99924.47;103140;1320;112095;-72
2021/12/22 06:51:30;;;;;;;61.80;30.50;;;;;;;-4.17;72.95;99925.16;103012;1316;97892;-74
2021/12/22 06:53:58;;;;;;;67.20;32.10;;;;;;;-4.16;72.97;99926.90;103135;1319;105522;-71
2021/12/22 06:56:26;;;;;;;76.10;39.00;;;;;;;-4.14;73.13;99926.73;102944;1316;98015;-72
2021/12/22 06:58:54;;;;;;;63.80;32.20;;;;;;;-4.11;73.06;99927.60;102939;1317;95912;-72
2021/12/22 07:01:25;;;;;;;63.00;30.20;;;;;;;-4.10;72.90;99930.20;103033;1317;111515;-72
2021/12/22 07:03:55;;;;;;;65.90;31.10;;;;;;;-4.10;72.89;99932.63;102979;1316;98015;-74
2021/12/22 07:06:23;;;;;;;58.10;26.80;;;;;;;-4.10;72.98;99929.33;102853;1316;109183;-74
2021/12/22 07:08:51;;;;;;;58.40;26.80;;;;;;;-4.09;72.86;99934.00;103003;1320;97779;-74
2021/12/22 07:11:19;;;;;;;61.70;27.80;;;;;;;-4.10;72.90;99941.28;103070;1315;96127;-73
2021/12/22 07:13:47;;;;;;;63.20;32.10;;;;;;;-4.09;73.01;99938.00;102991;1315;111491;-75
2021/12/22 07:16:14;;;;;;;62.50;31.90;;;;;;;-4.07;73.10;99939.38;103090;1316;97886;-75
2021/12/22 07:18:42;;;;;;;59.10;29.00;;;;;;;-4.05;73.08;99948.20;102861;1316;107861;-72
2021/12/22 07:21:11;;;;;;;56.30;26.30;;;;;;;-4.02;72.96;99944.75;102886;1320;95314;-72
2021/12/22 07:23:41;;;;;;;59.80;26.90;;;;;;;-4.01;73.12;99951.86;102996;1315;95166;-71
2021/12/22 07:26:13;;;;;;;61.30;28.30;;;;;;;-4.00;73.15;99951.85;102911;1318;112940;-73
2021/12/22 07:28:47;;;;;;;63.20;28.20;;;;;;;-3.97;72.94;99958.96;103075;1315;97962;-72
2021/12/22 07:31:17;;;;;;;62.90;29.60;;;;;;;-3.96;73.08;99960.70;103139;1316;108670;-73
2021/12/22 07:34:12;;;;;;;59.80;28.40;;;;;;;-3.95;73.12;99961.73;102914;1316;97933;-75
2021/12/22 07:37:11;;;;;;;57.60;25.90;;;;;;;-3.93;73.11;99963.82;103052;1316;95987;-74
2021/12/22 07:39:38;;;;;;;56.30;27.10;;;;;;;-3.91;73.15;99962.27;102925;1317;111492;-73
2021/12/22 07:42:07;;;;;;;54.40;26.80;;;;;;;-3.87;72.96;99969.20;102846;1319;97901;-72
2021/12/22 07:44:34;;;;;;;66.60;29.70;;;;;;;-3.85;73.18;99970.06;103006;1316;108258;-73
2021/12/22 07:47:03;;;;;;;56.70;27.70;;;;;;;-3.79;73.07;99968.85;103009;1316;97996;-72
2021/12/22 07:49:30;;;;;;;58.40;28.20;;;;;;;-3.73;73.22;99973.02;102973;1323;97960;-73
2021/12/22 07:52:01;;;;;;;56.10;25.70;;;;;;;-3.72;73.12;99971.98;103218;1320;111436;-73
2021/12/22 07:54:32;;;;;;;54.00;25.90;;;;;;;-3.69;73.11;99972.33;103126;1320;98037;-74
2021/12/22 07:57:00;;;;;;;59.80;26.40;;;;;;;-3.67;73.10;99973.36;103151;1316;107909;-74
2021/12/22 07:59:27;;;;;;;56.10;24.40;;;;;;;-3.61;73.38;99975.09;102865;1318;97935;-73
2021/12/22 08:01:58;;;;;;;55.80;26.30;;;;;;;-3.54;73.19;99978.56;102949;1316;97895;-73
2021/12/22 08:04:28;;;;;;;58.80;28.30;;;;;;;-3.50;73.30;99982.91;103032;1313;113313;-71
2021/12/22 08:07:00;;;;;;;65.90;29.80;;;;;;;-3.45;73.16;99985.84;102995;1317;98020;-71
2021/12/22 08:09:28;;;;;;;70.60;34.10;;;;;;;-3.41;73.22;99987.23;103007;1316;106180;-73
2021/12/22 08:12:04;;;;;;;71.30;33.50;;;;;;;-3.40;73.02;99986.70;102886;1318;97991;-73
2021/12/22 08:14:39;;;;;;;66.90;32.80;;;;;;;-3.34;73.27;99989.14;103074;1316;98534;-75
2021/12/22 08:17:10;;;;;;;65.10;30.70;;;;;;;-3.27;73.33;99987.05;103041;1316;111657;-73
2021/12/22 08:19:40;;;;;;;65.90;31.20;;;;;;;-3.24;73.11;99988.94;103045;1317;98042;-73
2021/12/22 08:22:08;;;;;;;70.10;33.80;;;;;;;-3.24;73.19;99988.07;103018;1316;107898;-72
2021/12/22 08:24:37;;;;;;;68.80;34.70;;;;;;;-3.23;73.18;99989.27;103053;1315;97908;-70
2021/12/22 08:27:06;;;;;;;66.20;32.60;;;;;;;-3.23;73.30;99995.35;102854;1317;97898;-71
2021/12/22 08:29:36;;;;;;;76.60;35.40;;;;;;;-3.24;73.05;99995.52;103056;1316;111529;-72
2021/12/22 08:32:05;;;;;;;66.10;32.90;;;;;;;-3.22;73.33;99992.06;102943;1317;97993;-71
2021/12/22 08:34:46;;;;;;;70.40;34.30;;;;;;;-3.18;73.20;99995.52;103057;1317;107888;-71
2021/12/22 08:40:01;;;;;;;59.30;28.50;;;;;;;-3.16;73.17;99996.39;103066;1315;95193;-72
2021/12/22 08:42:28;;;;;;;71.60;34.70;;;;;;;-3.17;73.46;99995.17;103058;1316;111681;-72
2021/12/22 08:44:56;;;;;;;69.20;33.90;;;;;;;-3.15;73.17;99994.30;103138;1316;97902;-73
2021/12/22 08:47:24;;;;;;;70.40;35.10;;;;;;;-3.06;73.33;99994.11;102998;1316;107737;-73
2021/12/22 08:49:55;;;;;;;65.50;32.90;;;;;;;-3.01;73.21;99996.00;102955;1316;97880;-71
2021/12/22 08:52:23;;;;;;;72.10;34.50;;;;;;;-2.98;73.36;99997.23;103043;1315;97899;-74
2021/12/22 08:54:55;;;;;;;72.30;35.10;;;;;;;-2.93;73.39;100001.72;102968;1315;111627;-74
2021/12/22 08:57:23;;;;;;;66.80;35.10;;;;;;;-2.89;73.25;100003.28;102900;1316;98127;-72
2021/12/22 08:59:54;;;;;;;60.90;29.80;;;;;;;-2.86;73.63;100000.66;102820;1315;107888;-71
2021/12/22 09:02:22;;;;;;;63.50;32.00;;;;;;;-2.84;73.28;100001.88;102695;1316;96471;-74
2021/12/22 09:04:53;;;;;;;66.60;32.80;;;;;;;-2.78;73.38;100004.11;102896;1315;97877;-75
2021/12/22 09:07:20;;;;;;;68.10;33.40;;;;;;;-2.70;73.34;100004.60;103033;1315;111644;-74
2021/12/22 09:09:48;;;;;;;59.10;28.60;;;;;;;-2.60;73.45;100004.55;103070;1315;97949;-74
2021/12/22 09:12:16;;;;;;;69.60;34.00;;;;;;;-2.53;73.45;100007.84;102925;1317;107406;-75
2021/12/22 09:14:44;;;;;;;64.70;30.30;;;;;;;-2.40;73.29;100006.56;103122;1315;96448;-74
2021/12/22 09:17:12;;;;;;;61.40;29.90;;;;;;;-2.21;73.64;100000.92;103117;1316;98428;-74
2021/12/22 09:19:41;;;;;;;65.90;32.50;;;;;;;-2.07;73.33;99996.84;103010;1319;111396;-75
2021/12/22 09:22:09;;;;;;;66.10;31.70;;;;;;;-1.75;73.65;100000.45;102974;1316;97579;-74
2021/12/22 09:24:37;;;;;;;59.80;29.60;;;;;;;-1.49;73.57;99997.30;103054;1315;107835;-73
2021/12/22 09:27:05;;;;;;;55.70;27.50;;;;;;;-1.50;73.52;99996.09;103073;1317;98005;-74
2021/12/22 09:29:33;;;;;;;54.70;26.30;;;;;;;-1.51;73.36;99994.88;103126;1317;95853;-74
2021/12/22 09:32:01;;;;;;;53.60;25.50;;;;;;;-1.54;73.15;99996.82;103087;1314;111583;-73
2021/12/22 09:34:29;;;;;;;49.90;26.10;;;;;;;-1.53;73.38;99995.23;103023;1319;96032;-73
2021/12/22 09:36:58;;;;;;;51.90;25.90;;;;;;;-1.56;73.25;99994.40;103182;1315;107885;-73
2021/12/22 09:39:26;;;;;;;50.90;24.80;;;;;;;-1.55;73.49;99989.52;103015;1317;96020;-72
2021/12/22 09:41:53;;;;;;;57.90;27.40;;;;;;;-1.56;73.63;99990.73;103106;1317;95287;-74
2021/12/22 09:44:23;;;;;;;57.60;26.30;;;;;;;-1.53;73.46;99993.16;103172;1316;114483;-71
2021/12/22 09:46:53;;;;;;;57.20;28.90;;;;;;;-1.47;73.50;99994.50;103144;1316;95300;-72
2021/12/22 09:52:21;;;;;;;55.20;27.80;;;;;;;-1.53;73.39;99994.20;102680;1316;97870;-74
2021/12/22 09:54:59;;;;;;;55.10;26.10;;;;;;;-1.57;73.63;99990.73;103021;1318;97995;-76
2021/12/22 09:57:29;;;;;;;57.30;27.70;;;;;;;-1.58;73.65;99990.93;103127;1317;109763;-74
2021/12/22 10:00:00;;;;;;;52.70;28.00;;;;;;;-1.59;73.71;99991.80;103026;1319;97909;-77
2021/12/22 10:02:29;;;;;;;54.80;25.90;;;;;;;-1.65;73.36;99992.56;103028;1317;107593;-74
2021/12/22 10:04:59;;;;;;;47.60;22.70;;;;;;;-1.68;73.51;99992.41;102987;1317;97880;-73
2021/12/22 10:07:30;;;;;;;55.10;26.10;;;;;;;-1.66;73.52;99991.35;103129;1315;97926;-72
2021/12/22 10:10:07;;;;;;;57.80;27.30;;;;;;;-1.64;73.55;99997.95;103100;1316;111517;-73
2021/12/22 10:12:36;;;;;;;54.40;26.70;;;;;;;-1.66;73.36;99993.27;103073;1318;97866;-73
2021/12/22 10:15:07;;;;;;;57.90;28.60;;;;;;;-1.65;73.61;99992.90;102933;1319;107952;-72
2021/12/22 10:17:41;;;;;;;57.20;29.30;;;;;;;-1.62;73.49;99991.83;103019;1322;97911;-71
2021/12/22 10:20:17;;;;;;;54.30;27.40;;;;;;;-1.54;73.41;99992.12;103194;1315;96482;-72
2021/12/22 10:22:48;;;;;;;55.60;30.10;;;;;;;-1.47;73.51;99993.46;103180;1322;111510;-73
2021/12/22 10:25:28;;;;;;;55.80;29.10;;;;;;;-1.41;73.47;99992.52;103198;1315;98050;-73
2021/12/22 10:28:09;;;;;;;58.00;27.70;;;;;;;-1.31;73.62;99987.39;103025;1322;107945;-72
2021/12/22 10:30:41;;;;;;;53.80;27.20;;;;;;;-1.23;73.72;99990.63;103087;1315;96576;-73
2021/12/22 10:33:23;;;;;;;56.60;29.00;;;;;;;-1.21;73.59;99986.95;103142;1315;98036;-73
2021/12/22 10:36:00;;;;;;;56.80;26.70;;;;;;;-1.16;73.48;99984.47;103016;1316;111571;-74
2021/12/22 10:38:29;;;;;;;;;;;;;;;-1.22;73.13;99983.30;102934;1319;98088;-72
2021/12/22 10:41:12;;;;;;;49.70;22.00;;;;;;;-1.25;73.47;99983.16;103132;1316;108636;-74
2021/12/22 10:43:44;;;;;;;46.40;22.20;;;;;;;-1.24;73.19;99976.20;103102;1320;98066;-71
2021/12/22 10:46:32;;;;;;;45.90;20.80;;;;;;;-1.27;73.34;99977.80;103093;1316;97924;-75
2021/12/22 10:49:14;;;;;;;48.00;23.40;;;;;;;-1.32;73.41;99978.54;102689;1315;171151;-74
2021/12/22 10:52:00;;;;;;;46.90;21.50;;;;;;;-1.31;73.53;99977.48;102755;1317;97870;-74
2021/12/22 10:54:37;;;;;;;47.00;21.90;;;;;;;-1.32;73.41;99981.83;103065;1316;108017;-76
2021/12/22 10:57:12;;;;;;;51.10;25.20;;;;;;;-1.31;73.20;99977.31;103037;1316;98326;-74
2021/12/22 10:59:49;;;;;;;51.80;25.60;;;;;;;-1.22;73.24;99978.61;102866;1317;97908;-75
2021/12/22 11:02:27;;;;;;;46.40;22.70;;;;;;;-1.14;73.42;99982.18;102909;1317;111044;-74
2021/12/22 11:04:55;;;;;;;46.20;23.30;;;;;;;-1.15;73.18;99984.63;102998;1317;98365;-75
2021/12/22 11:07:28;;;;;;;43.90;21.70;;;;;;;-1.16;73.37;99982.90;103100;1316;107793;-72
2021/12/22 11:09:56;;;;;;;48.80;23.60;;;;;;;-1.18;73.25;99980.65;102986;1317;95409;-70
2021/12/22 11:12:38;;;;;;;46.40;23.80;;;;;;;-1.23;73.21;99978.96;103198;1315;95304;-71
2021/12/22 11:15:25;;;;;;;45.20;23.10;;;;;;;-1.22;73.34;99979.64;103125;1317;111510;-78
2021/12/22 11:17:53;;;;;;;50.00;26.30;;;;;;;-1.24;73.30;99975.48;103081;1317;97857;-70
2021/12/22 11:20:25;;;;;;;52.50;28.10;;;;;;;-1.32;72.94;99976.09;103083;1317;107451;-71
2021/12/22 11:22:58;;;;;;;50.20;27.00;;;;;;;-1.36;72.96;99971.43;103014;1317;98056;-70
2021/12/22 11:25:30;;;;;;;46.90;24.00;;;;;;;-1.39;73.01;99970.92;102950;1319;96545;-71
2021/12/22 11:27:59;;;;;;;49.10;23.90;;;;;;;-1.43;73.26;99968.88;103097;1315;111505;-72
2021/12/22 11:30:28;;;;;;;50.60;26.30;;;;;;;-1.44;73.21;99964.02;103048;1313;97931;-74
2021/12/22 11:32:58;;;;;;;49.30;24.80;;;;;;;-1.45;73.27;99962.64;103079;1319;107806;-73
2021/12/22 11:35:28;;;;;;;41.50;20.30;;;;;;;-1.43;73.14;99961.23;103130;1316;97934;-74
2021/12/22 11:37:56;;;;;;;41.80;21.70;;;;;;;-1.45;73.22;99960.73;103161;1316;97924;-73
2021/12/22 11:40:28;;;;;;;43.80;21.50;;;;;;;-1.56;72.75;99961.34;103065;1315;111504;-71
2021/12/22 11:42:58;;;;;;;43.00;20.80;;;;;;;-1.62;72.96;99960.17;103086;1317;97955;-73
2021/12/22 11:45:26;;;;;;;43.50;20.30;;;;;;;-1.64;72.77;99958.11;103068;1317;107928;-72
2021/12/22 11:47:59;;;;;;;53.50;22.90;;;;;;;-1.64;72.91;99961.41;102996;1317;95987;-72